createdAt,value
2022-12-31T00:01:16.108Z,7.50
2022-12-31T00:03:44.998Z,7.30
2022-12-31T00:06:17.703Z,7.78
2022-12-31T00:08:46.364Z,7.32
2022-12-31T00:11:14.714Z,7.75
2022-12-31T00:13:42.668Z,7.35
2022-12-31T00:16:23.332Z,7.15
2022-12-31T00:18:53.629Z,8.43
2022-12-31T00:21:22.982Z,8.43
2022-12-31T00:23:50.941Z,7.60
2022-12-31T00:26:23.042Z,7.50
2022-12-31T00:28:50.706Z,7.25
2022-12-31T00:31:21.622Z,8.27
2022-12-31T00:33:49.784Z,8.48
2022-12-31T00:36:22.919Z,7.80
2022-12-31T00:38:52.197Z,7.45
2022-12-31T00:41:21.735Z,9.00
2022-12-31T00:43:50.436Z,9.68
2022-12-31T00:46:18.974Z,9.23
2022-12-31T00:48:47.138Z,10.63
2022-12-31T00:51:18.343Z,9.40
2022-12-31T00:53:46.236Z,10.55
2022-12-31T00:56:23.458Z,10.48
2022-12-31T00:58:52.026Z,10.15
2022-12-31T01:01:23.573Z,8.82
2022-12-31T01:03:54.923Z,9.73
2022-12-31T01:06:23.129Z,9.13
2022-12-31T01:08:51.911Z,8.95
2022-12-31T01:11:20.541Z,9.20
2022-12-31T01:13:58.767Z,8.88
2022-12-31T01:16:30.823Z,8.40
2022-12-31T01:19:03.515Z,8.07
2022-12-31T01:21:31.554Z,9.77
2022-12-31T01:24:00.038Z,8.75
2022-12-31T01:26:28.449Z,8.68
2022-12-31T01:28:56.090Z,9.10
2022-12-31T01:31:25.350Z,8.52
2022-12-31T01:33:53.819Z,9.52
2022-12-31T01:36:26.289Z,9.40
2022-12-31T01:38:55.838Z,8.98
2022-12-31T01:41:26.861Z,9.25
2022-12-31T01:43:59.732Z,9.80
2022-12-31T01:46:38.335Z,9.57
2022-12-31T01:49:21.064Z,9.55
2022-12-31T01:51:55.324Z,8.77
2022-12-31T01:54:26.164Z,9.40
2022-12-31T01:56:55.049Z,7.80
2022-12-31T01:59:24.894Z,8.85
2022-12-31T02:01:55.796Z,8.43
2022-12-31T02:04:26.136Z,7.43
2022-12-31T02:07:06.432Z,8.52
2022-12-31T02:09:36.923Z,8.18
2022-12-31T02:12:05.045Z,8.13
2022-12-31T02:14:35.706Z,6.97
2022-12-31T02:17:08.827Z,7.90
2022-12-31T02:19:55.056Z,8.70
2022-12-31T02:22:41.292Z,8.15
2022-12-31T02:25:12.276Z,8.15
2022-12-31T02:27:58.113Z,7.65
2022-12-31T02:30:27.758Z,7.90
2022-12-31T02:33:06.871Z,7.30
2022-12-31T02:35:44.433Z,7.20
2022-12-31T02:38:22.110Z,7.10
2022-12-31T02:40:50.312Z,6.68
2022-12-31T02:43:17.936Z,7.37
2022-12-31T02:45:57.563Z,7.35
2022-12-31T02:48:45.437Z,7.03
2022-12-31T02:51:25.169Z,7.32
2022-12-31T02:54:20.655Z,6.40
2022-12-31T02:57:04.859Z,6.85
2022-12-31T03:00:02.850Z,7.40
2022-12-31T03:02:34.384Z,7.32
2022-12-31T03:05:03.616Z,7.97
2022-12-31T03:07:33.272Z,6.87
2022-12-31T03:10:02.174Z,6.72
2022-12-31T03:12:47.751Z,7.12
2022-12-31T03:15:21.422Z,6.60
2022-12-31T03:17:54.948Z,7.18
2022-12-31T03:20:44.209Z,7.25
2022-12-31T03:23:15.098Z,7.68
2022-12-31T03:25:44.775Z,6.55
2022-12-31T03:28:15.604Z,7.53
2022-12-31T03:30:46.072Z,5.82
2022-12-31T03:33:13.859Z,6.72
2022-12-31T03:35:43.035Z,5.85
2022-12-31T03:38:10.772Z,1.37
2022-12-31T03:40:45.319Z,2.72
2022-12-31T03:43:13.258Z,0.98
2022-12-31T03:45:41.119Z,0.90
2022-12-31T03:48:10.778Z,1.37
2022-12-31T03:50:38.541Z,1.40
2022-12-31T03:53:06.716Z,1.05
2022-12-31T03:55:34.518Z,1.40
2022-12-31T03:58:02.144Z,0.82
2022-12-31T04:00:30.101Z,1.00
2022-12-31T04:02:57.875Z,1.20
2022-12-31T04:05:25.780Z,1.00
2022-12-31T04:07:53.467Z,1.30
2022-12-31T04:10:21.624Z,0.80
2022-12-31T04:12:49.421Z,0.70
2022-12-31T04:15:20.308Z,0.70
2022-12-31T04:17:48.979Z,0.60
2022-12-31T04:20:17.360Z,0.62
2022-12-31T04:22:45.261Z,0.60
2022-12-31T04:25:14.081Z,0.75
2022-12-31T04:27:44.569Z,0.70
2022-12-31T04:30:14.433Z,0.75
2022-12-31T04:32:42.794Z,0.82
2022-12-31T04:35:11.737Z,0.70
2022-12-31T04:37:39.778Z,0.55
2022-12-31T04:40:08.897Z,0.70
2022-12-31T04:42:37.033Z,0.60
2022-12-31T04:45:05.983Z,0.50
2022-12-31T04:47:33.694Z,0.50
2022-12-31T04:50:01.323Z,0.70
2022-12-31T04:52:29.038Z,0.60
2022-12-31T04:54:56.678Z,0.70
2022-12-31T04:57:24.332Z,0.70
2022-12-31T04:59:52.012Z,0.70
2022-12-31T05:02:19.901Z,0.60
2022-12-31T05:04:47.683Z,0.70
2022-12-31T05:07:15.344Z,0.70
2022-12-31T05:09:43.016Z,0.80
2022-12-31T05:12:10.617Z,0.60
2022-12-31T05:14:38.280Z,1.33
2022-12-31T05:17:05.979Z,0.98
2022-12-31T05:19:33.693Z,0.70
2022-12-31T05:22:19.972Z,0.90
2022-12-31T05:24:47.679Z,0.70
2022-12-31T05:27:15.318Z,0.68
2022-12-31T05:29:43.021Z,0.62
2022-12-31T05:32:10.715Z,0.70
2022-12-31T05:34:38.437Z,0.60
2022-12-31T05:37:06.085Z,0.70
2022-12-31T05:39:33.746Z,0.60
2022-12-31T05:42:01.533Z,0.60
2022-12-31T05:44:29.183Z,0.40
2022-12-31T05:46:56.924Z,0.60
2022-12-31T05:49:24.633Z,0.62
2022-12-31T05:51:52.284Z,0.60
2022-12-31T05:54:20.050Z,0.70
2022-12-31T05:56:47.704Z,0.70
2022-12-31T05:59:15.444Z,0.62
2022-12-31T06:01:43.199Z,0.88
2022-12-31T06:04:10.948Z,0.70
2022-12-31T06:06:38.650Z,0.80
2022-12-31T06:09:06.524Z,0.50
2022-12-31T06:11:34.312Z,0.68
2022-12-31T06:14:02.096Z,0.70
2022-12-31T06:16:30.069Z,0.62
2022-12-31T06:18:57.738Z,0.77
2022-12-31T06:21:25.378Z,0.60
2022-12-31T06:23:52.964Z,0.50
2022-12-31T06:26:20.779Z,0.73
2022-12-31T06:28:48.551Z,0.70
2022-12-31T06:31:16.463Z,1.02
2022-12-31T06:33:44.247Z,0.77
2022-12-31T06:36:15.612Z,0.70
2022-12-31T06:38:44.754Z,0.70
2022-12-31T06:41:14.801Z,0.70
2022-12-31T06:43:43.914Z,0.65
2022-12-31T06:46:14.430Z,1.35
2022-12-31T06:48:44.211Z,0.60
2022-12-31T06:51:17.255Z,0.70
2022-12-31T06:53:46.978Z,0.98
2022-12-31T06:56:33.023Z,1.37
2022-12-31T06:59:02.039Z,1.05
2022-12-31T07:01:42.968Z,1.40
2022-12-31T07:04:13.342Z,1.17
2022-12-31T07:06:53.034Z,0.90
2022-12-31T07:09:34.475Z,0.80
2022-12-31T07:12:07.934Z,0.90
2022-12-31T07:14:55.700Z,1.10
2022-12-31T07:17:30.367Z,1.02
2022-12-31T07:20:00.751Z,0.80
2022-12-31T07:22:28.658Z,1.08
2022-12-31T07:24:56.675Z,1.42
2022-12-31T07:27:42.831Z,1.23
2022-12-31T07:30:16.508Z,1.67
2022-12-31T07:33:14.841Z,1.15
2022-12-31T07:36:11.567Z,1.27
2022-12-31T07:39:01.897Z,1.60
2022-12-31T07:41:42.297Z,1.58
2022-12-31T07:44:22.093Z,1.75
2022-12-31T07:46:57.724Z,1.60
2022-12-31T07:49:26.858Z,1.80
2022-12-31T07:51:55.665Z,1.73
2022-12-31T07:54:23.688Z,1.62
2022-12-31T07:56:51.833Z,1.60
2022-12-31T07:59:57.701Z,1.30
2022-12-31T08:02:40.313Z,1.50
2022-12-31T08:05:24.454Z,1.60
2022-12-31T08:08:21.563Z,1.40
2022-12-31T08:10:58.937Z,1.40
2022-12-31T08:13:26.822Z,2.10
2022-12-31T08:15:54.912Z,1.70
2022-12-31T08:18:22.932Z,1.67
2022-12-31T08:21:01.740Z,1.83
2022-12-31T08:23:44.511Z,1.75
2022-12-31T08:27:03.604Z,1.58
2022-12-31T08:29:41.103Z,1.80
2022-12-31T08:32:31.586Z,2.08
2022-12-31T08:35:26.312Z,1.50
2022-12-31T08:38:21.304Z,1.75
2022-12-31T08:41:02.443Z,2.15
2022-12-31T08:43:50.684Z,1.80
2022-12-31T08:46:34.443Z,2.00
2022-12-31T08:49:02.399Z,2.40
2022-12-31T08:51:30.311Z,2.55
2022-12-31T08:53:58.483Z,2.80
2022-12-31T08:57:00.231Z,1.90
2022-12-31T08:59:42.990Z,1.70
2022-12-31T09:02:36.072Z,1.77
2022-12-31T09:05:06.725Z,1.50
2022-12-31T09:07:39.263Z,1.90
2022-12-31T09:10:19.300Z,1.73
2022-12-31T09:13:09.784Z,1.90
2022-12-31T09:15:43.621Z,2.10
2022-12-31T09:18:13.866Z,2.25
2022-12-31T09:20:43.803Z,2.03
2022-12-31T09:23:14.352Z,1.95
2022-12-31T09:25:52.567Z,1.77
2022-12-31T09:28:44.351Z,1.70
2022-12-31T09:31:22.823Z,1.77
2022-12-31T09:34:38.371Z,1.55
2022-12-31T09:37:19.090Z,1.42
2022-12-31T09:39:49.084Z,1.50
2022-12-31T09:42:34.854Z,1.73
2022-12-31T09:45:21.151Z,1.58
2022-12-31T09:48:07.496Z,1.40
2022-12-31T09:50:55.117Z,1.77
2022-12-31T09:53:43.887Z,1.62
2022-12-31T09:57:09.016Z,1.90
2022-12-31T09:59:47.363Z,1.35
2022-12-31T10:02:38.968Z,1.55
2022-12-31T10:05:25.231Z,1.37
2022-12-31T10:08:17.320Z,2.05
2022-12-31T10:11:07.416Z,2.12
2022-12-31T10:13:56.678Z,1.80
2022-12-31T10:16:45.041Z,1.42
2022-12-31T10:19:35.358Z,1.85
2022-12-31T10:22:23.978Z,1.30
2022-12-31T10:25:03.516Z,0.90
2022-12-31T10:27:56.144Z,0.90
2022-12-31T10:30:25.460Z,1.12
2022-12-31T10:33:11.702Z,1.10
2022-12-31T10:36:01.253Z,1.45
2022-12-31T10:38:36.688Z,1.60
2022-12-31T10:41:21.936Z,2.30
2022-12-31T10:44:11.341Z,1.90
2022-12-31T10:47:23.857Z,2.05
2022-12-31T10:50:17.168Z,1.85
2022-12-31T10:53:09.833Z,2.40
2022-12-31T10:56:14.793Z,1.98
2022-12-31T10:58:56.586Z,2.05
2022-12-31T11:01:50.367Z,2.17
2022-12-31T11:04:51.418Z,2.50
2022-12-31T11:07:48.762Z,2.72
2022-12-31T11:10:47.372Z,2.28
2022-12-31T11:13:26.838Z,1.70
2022-12-31T11:16:07.093Z,1.80
2022-12-31T11:18:56.640Z,2.17
2022-12-31T11:21:48.223Z,2.15
2022-12-31T11:24:54.404Z,2.60
2022-12-31T11:27:51.224Z,2.30
2022-12-31T11:30:46.877Z,2.35
2022-12-31T11:33:50.341Z,1.92
2022-12-31T11:36:56.103Z,2.17
2022-12-31T11:39:41.485Z,2.05
2022-12-31T11:42:28.088Z,2.83
2022-12-31T11:45:14.291Z,2.58
2022-12-31T11:48:28.968Z,2.45
2022-12-31T11:51:00.636Z,2.50
2022-12-31T11:53:40.254Z,3.37
2022-12-31T11:56:18.358Z,3.95
2022-12-31T11:58:50.522Z,2.40
2022-12-31T12:01:42.951Z,2.90
2022-12-31T12:04:12.400Z,2.47
2022-12-31T12:06:41.671Z,2.62
2022-12-31T12:09:17.852Z,2.80
2022-12-31T12:11:45.748Z,2.53
2022-12-31T12:14:31.131Z,2.25
2022-12-31T12:17:04.811Z,2.67
2022-12-31T12:19:35.408Z,3.17
2022-12-31T12:22:15.423Z,3.30
2022-12-31T12:24:57.415Z,3.30
2022-12-31T12:27:30.150Z,2.92
2022-12-31T12:29:58.066Z,2.92
2022-12-31T12:32:27.981Z,2.95
2022-12-31T12:34:55.689Z,2.70
2022-12-31T12:37:26.339Z,2.87
2022-12-31T12:40:12.021Z,2.83
2022-12-31T12:42:51.131Z,3.45
2022-12-31T12:45:20.522Z,2.80
2022-12-31T12:47:52.230Z,2.70
2022-12-31T12:50:23.396Z,2.62
2022-12-31T12:53:09.833Z,2.55
2022-12-31T12:56:38.791Z,2.72
2022-12-31T12:59:30.909Z,2.25
2022-12-31T13:02:32.838Z,3.30
2022-12-31T13:05:41.183Z,2.83
2022-12-31T13:08:55.615Z,3.70
2022-12-31T13:11:36.284Z,2.87
2022-12-31T13:14:45.304Z,2.40
2022-12-31T13:17:51.467Z,2.40
2022-12-31T13:20:31.198Z,1.90
2022-12-31T13:23:21.907Z,2.20
2022-12-31T13:26:17.477Z,2.62
2022-12-31T13:28:48.948Z,2.08
2022-12-31T13:31:23.011Z,2.33
2022-12-31T13:34:02.395Z,2.00
2022-12-31T13:36:33.929Z,2.20
2022-12-31T13:39:06.992Z,1.90
2022-12-31T13:41:47.725Z,2.17
2022-12-31T13:44:25.006Z,1.75
2022-12-31T13:47:02.861Z,2.10
2022-12-31T13:49:43.029Z,1.67
2022-12-31T13:52:30.987Z,2.03
2022-12-31T13:55:25.244Z,2.00
2022-12-31T13:58:11.432Z,2.00
2022-12-31T14:01:08.000Z,2.58
2022-12-31T14:04:17.348Z,2.20
2022-12-31T14:07:15.014Z,2.00
2022-12-31T14:09:43.540Z,2.55
2022-12-31T14:13:05.122Z,2.45
2022-12-31T14:15:38.537Z,2.58
2022-12-31T14:18:18.992Z,2.33
2022-12-31T14:20:55.199Z,2.83
2022-12-31T14:23:41.596Z,3.15
2022-12-31T14:26:27.071Z,2.83
2022-12-31T14:29:11.079Z,2.30
2022-12-31T14:31:50.577Z,2.83
2022-12-31T14:34:52.121Z,2.75
2022-12-31T14:37:24.758Z,2.22
2022-12-31T14:40:17.095Z,2.97
2022-12-31T14:42:57.034Z,3.08
2022-12-31T14:45:39.625Z,2.70
2022-12-31T14:48:41.307Z,2.62
2022-12-31T14:51:10.423Z,2.95
2022-12-31T14:53:38.221Z,2.95
2022-12-31T14:56:08.783Z,3.33
2022-12-31T14:58:38.407Z,3.40
2022-12-31T15:01:27.528Z,3.22
2022-12-31T15:03:58.889Z,3.03
2022-12-31T15:06:50.048Z,2.72
2022-12-31T15:09:36.180Z,2.95
2022-12-31T15:12:22.067Z,3.17
2022-12-31T15:15:34.094Z,3.15
2022-12-31T15:18:08.384Z,3.55
2022-12-31T15:20:58.671Z,3.87
2022-12-31T15:23:36.330Z,3.75
2022-12-31T15:26:05.709Z,3.42
2022-12-31T15:28:39.473Z,3.35
2022-12-31T15:31:21.173Z,3.42
2022-12-31T15:34:04.805Z,3.62
2022-12-31T15:36:39.689Z,3.37
2022-12-31T15:39:13.402Z,3.40
2022-12-31T15:42:18.608Z,3.25
2022-12-31T15:45:04.907Z,3.97
2022-12-31T15:47:40.899Z,4.45
2022-12-31T15:50:30.201Z,3.50
2022-12-31T15:53:04.148Z,3.70
2022-12-31T15:55:50.487Z,3.92
2022-12-31T15:58:22.341Z,3.60
2022-12-31T16:01:14.115Z,3.20
2022-12-31T16:04:02.711Z,3.67
2022-12-31T16:06:32.787Z,3.33
2022-12-31T16:09:00.671Z,3.60
2022-12-31T16:11:31.551Z,3.60
2022-12-31T16:14:00.874Z,3.90
2022-12-31T16:16:31.288Z,2.97
2022-12-31T16:19:00.203Z,2.60
2022-12-31T16:21:39.198Z,2.58
2022-12-31T16:24:24.978Z,2.67
2022-12-31T16:26:55.835Z,2.20
2022-12-31T16:29:25.278Z,2.80
2022-12-31T16:31:54.880Z,2.78
2022-12-31T16:34:25.512Z,2.95
2022-12-31T16:39:35.013Z,3.00
2022-12-31T16:42:14.440Z,3.60
2022-12-31T16:44:42.810Z,3.85
2022-12-31T16:47:16.279Z,5.37
2022-12-31T16:49:44.536Z,6.15
2022-12-31T16:52:40.135Z,5.20
2022-12-31T16:55:17.580Z,5.15
2022-12-31T16:57:48.716Z,4.10
2022-12-31T17:00:19.056Z,3.80
2022-12-31T17:02:54.347Z,3.75
2022-12-31T17:05:24.768Z,3.87
2022-12-31T17:07:53.064Z,3.30
2022-12-31T17:10:27.210Z,3.25
2022-12-31T17:13:27.845Z,3.33
2022-12-31T17:15:49.250Z,3.37
2022-12-31T17:18:23.730Z,2.67
2022-12-31T17:20:53.529Z,3.05
2022-12-31T17:23:27.975Z,3.22
2022-12-31T17:26:01.050Z,2.92
2022-12-31T17:28:38.943Z,4.25
2022-12-31T17:31:28.304Z,4.75
2022-12-31T17:34:25.439Z,5.65
2022-12-31T17:37:03.445Z,7.93
2022-12-31T17:39:52.635Z,7.03
2022-12-31T17:42:29.058Z,5.18
2022-12-31T17:45:17.392Z,36.90
2022-12-31T17:47:49.298Z,26.35
2022-12-31T17:50:27.934Z,11.38
2022-12-31T17:53:06.787Z,7.53
2022-12-31T17:55:34.878Z,7.50
2022-12-31T17:58:06.056Z,6.40
2022-12-31T18:00:35.300Z,5.75
2022-12-31T18:03:03.077Z,5.97
2022-12-31T18:05:30.851Z,5.30
2022-12-31T18:07:58.517Z,4.97
2022-12-31T18:10:28.907Z,11.70
2022-12-31T18:12:56.789Z,8.95
2022-12-31T18:15:25.821Z,9.00
2022-12-31T18:17:53.537Z,8.40
2022-12-31T18:20:21.351Z,6.60
2022-12-31T18:22:49.248Z,6.30
2022-12-31T18:28:02.483Z,5.25
2022-12-31T18:30:30.446Z,4.78
2022-12-31T18:32:58.432Z,5.53
2022-12-31T18:36:06.393Z,5.72
2022-12-31T18:38:15.396Z,5.32
2022-12-31T18:40:47.740Z,5.68
2022-12-31T18:43:19.833Z,5.55
2022-12-31T18:45:48.684Z,5.50
2022-12-31T18:48:16.988Z,5.53
2022-12-31T18:50:45.533Z,6.47
2022-12-31T18:53:24.439Z,7.53
2022-12-31T18:55:55.390Z,7.30
2022-12-31T18:58:23.531Z,5.78
2022-12-31T19:00:52.781Z,5.35
2022-12-31T19:03:28.404Z,5.30
2022-12-31T19:05:56.285Z,5.45
2022-12-31T19:08:24.765Z,6.32
2022-12-31T19:10:53.243Z,6.07
2022-12-31T19:13:21.699Z,4.93
2022-12-31T19:15:52.440Z,6.15
2022-12-31T19:18:20.292Z,6.55
2022-12-31T19:20:48.384Z,6.00
2022-12-31T19:23:19.432Z,6.70
2022-12-31T19:25:48.415Z,7.10
2022-12-31T19:28:21.511Z,7.47
2022-12-31T19:30:49.696Z,6.78
2022-12-31T19:33:17.904Z,6.87
2022-12-31T19:35:46.129Z,6.35
2022-12-31T19:38:20.255Z,6.65
2022-12-31T19:40:48.819Z,6.28
2022-12-31T19:43:18.653Z,6.57
2022-12-31T19:45:47.282Z,7.78
2022-12-31T19:48:18.465Z,13.65
2022-12-31T19:50:49.920Z,17.73
2022-12-31T19:53:20.897Z,15.88
2022-12-31T19:55:49.513Z,19.77
2022-12-31T19:58:26.561Z,15.80
2022-12-31T20:01:02.020Z,21.50
2022-12-31T20:03:32.251Z,27.25
2022-12-31T20:06:04.167Z,19.75
2022-12-31T20:08:31.872Z,15.50
2022-12-31T20:11:00.117Z,12.18
2022-12-31T20:13:28.145Z,10.38
2022-12-31T20:15:55.931Z,9.57
2022-12-31T20:18:24.327Z,9.77
2022-12-31T20:20:55.977Z,10.30
2022-12-31T20:23:23.849Z,9.63
2022-12-31T20:25:58.964Z,10.18
2022-12-31T20:28:27.017Z,9.98
2022-12-31T20:30:55.074Z,10.05
2022-12-31T20:33:23.638Z,9.52
2022-12-31T20:35:52.584Z,9.82
2022-12-31T20:38:20.211Z,12.07
2022-12-31T20:40:47.927Z,11.55
2022-12-31T20:43:15.572Z,15.38
2022-12-31T20:45:43.223Z,13.62
2022-12-31T20:48:10.949Z,12.30
2022-12-31T20:50:38.652Z,11.40
2022-12-31T20:53:06.351Z,15.55
2022-12-31T20:55:34.442Z,15.05
2022-12-31T20:58:02.079Z,25.37
2022-12-31T21:00:29.745Z,20.00
2022-12-31T21:03:08.072Z,22.15
2022-12-31T21:05:38.497Z,22.30
2022-12-31T21:08:06.282Z,18.02
2022-12-31T21:10:35.474Z,25.90
2022-12-31T21:13:03.150Z,30.30
2022-12-31T21:15:30.890Z,40.30
2022-12-31T21:18:00.290Z,42.85
2022-12-31T21:20:28.617Z,36.95
2022-12-31T21:22:56.290Z,22.48
2022-12-31T21:25:24.013Z,27.87
2022-12-31T21:27:51.725Z,27.10
2022-12-31T21:30:20.049Z,27.80
2022-12-31T21:32:48.189Z,25.42
2022-12-31T21:38:05.190Z,21.48
2022-12-31T21:40:32.992Z,20.30
2022-12-31T21:43:00.679Z,22.40
2022-12-31T21:45:28.349Z,20.80
2022-12-31T21:48:18.685Z,20.37
2022-12-31T21:50:53.940Z,19.02
2022-12-31T21:53:30.470Z,20.15
2022-12-31T21:56:10.167Z,20.80
2022-12-31T21:58:45.865Z,23.52
2022-12-31T22:01:38.452Z,25.12
2022-12-31T22:04:12.906Z,26.37
2022-12-31T22:06:49.960Z,32.75
2022-12-31T22:09:17.710Z,33.05
2022-12-31T22:11:45.487Z,32.25
2022-12-31T22:14:13.281Z,39.42
2022-12-31T22:16:41.072Z,41.90
2022-12-31T22:19:09.179Z,39.00
2022-12-31T22:21:36.859Z,42.15
2022-12-31T22:24:04.774Z,43.70
2022-12-31T22:26:32.466Z,45.28
2022-12-31T22:29:00.435Z,59.22
2022-12-31T22:31:31.119Z,68.65
2022-12-31T22:34:00.030Z,56.55
2022-12-31T22:36:27.807Z,46.72
2022-12-31T22:38:58.491Z,41.10
2022-12-31T22:41:27.497Z,44.72
2022-12-31T22:44:03.008Z,40.72
2022-12-31T22:46:31.693Z,39.88
2022-12-31T22:49:00.834Z,40.50
2022-12-31T22:51:55.281Z,43.60
2022-12-31T22:54:17.161Z,49.38
2022-12-31T22:56:44.839Z,49.60
2022-12-31T22:59:12.572Z,58.22
2022-12-31T23:01:40.489Z,66.00
2022-12-31T23:04:08.228Z,100.32
2022-12-31T23:06:44.544Z,108.00
2022-12-31T23:09:34.926Z,182.32
2022-12-31T23:12:03.987Z,161.48
2022-12-31T23:14:50.318Z,140.07
2022-12-31T23:17:42.368Z,145.32
2022-12-31T23:20:35.394Z,140.20
2022-12-31T23:23:12.589Z,188.90
2022-12-31T23:25:47.244Z,241.35
2022-12-31T23:28:17.967Z,273.00
2022-12-31T23:30:45.787Z,214.55
2022-12-31T23:33:18.900Z,222.07
2022-12-31T23:35:47.048Z,157.77
2022-12-31T23:38:17.741Z,132.57
2022-12-31T23:40:46.402Z,110.93
2022-12-31T23:43:21.412Z,88.47
2022-12-31T23:45:52.974Z,84.62
2022-12-31T23:48:21.106Z,81.12
2022-12-31T23:50:53.939Z,80.87
2022-12-31T23:53:25.479Z,91.05
2022-12-31T23:55:54.210Z,88.45
2022-12-31T23:58:22.494Z,89.68
